createdAt,value
2017-11-30T00:00:30.435Z,999.82
2017-11-30T00:01:10.958Z,999.82
2017-11-30T00:01:51.459Z,999.82
2017-11-30T00:02:31.958Z,999.79
2017-11-30T00:03:12.480Z,999.81
2017-11-30T00:03:52.970Z,999.8
2017-11-30T00:04:33.477Z,999.82
2017-11-30T00:05:13.991Z,999.83
2017-11-30T00:05:54.490Z,999.84
2017-11-30T00:06:34.986Z,999.79
2017-11-30T00:07:15.505Z,999.79
2017-11-30T00:07:56.055Z,999.81
2017-11-30T00:08:36.549Z,999.78
2017-11-30T00:09:17.055Z,999.78
2017-11-30T00:09:57.557Z,999.76
2017-11-30T00:10:38.093Z,999.72
2017-11-30T00:11:18.619Z,999.8
2017-11-30T00:11:59.129Z,999.73
2017-11-30T00:12:39.631Z,999.74
2017-11-30T00:13:20.149Z,999.74
2017-11-30T00:14:00.663Z,999.72
2017-11-30T00:14:41.199Z,999.73
2017-11-30T00:15:21.700Z,999.77
2017-11-30T00:16:02.207Z,999.75
2017-11-30T00:16:42.725Z,999.75
2017-11-30T00:17:23.282Z,999.74
2017-11-30T00:18:03.816Z,999.78
2017-11-30T00:18:44.304Z,999.77
2017-11-30T00:19:24.808Z,999.76
2017-11-30T00:20:05.297Z,999.75
2017-11-30T00:20:45.788Z,999.78
2017-11-30T00:21:26.290Z,999.79
2017-11-30T00:22:06.795Z,999.77
2017-11-30T00:22:47.320Z,999.82
2017-11-30T00:23:27.827Z,999.8
2017-11-30T00:24:08.361Z,999.76
2017-11-30T00:24:48.876Z,999.75
2017-11-30T00:25:29.374Z,999.76
2017-11-30T00:26:09.877Z,999.8
2017-11-30T00:26:50.388Z,999.76
2017-11-30T00:27:30.880Z,999.74
2017-11-30T00:28:11.390Z,999.75
2017-11-30T00:28:51.912Z,999.73
2017-11-30T00:29:32.432Z,999.75
2017-11-30T00:30:12.944Z,999.77
2017-11-30T00:30:53.443Z,999.77
2017-11-30T00:31:33.961Z,999.71
2017-11-30T00:32:14.470Z,999.76
2017-11-30T00:32:55.015Z,999.74
2017-11-30T00:33:35.517Z,999.76
2017-11-30T00:34:16.164Z,999.78
2017-11-30T00:34:56.666Z,999.75
2017-11-30T00:35:37.176Z,999.74
2017-11-30T00:36:17.696Z,999.78
2017-11-30T00:36:58.198Z,999.78
2017-11-30T00:37:38.778Z,999.74
2017-11-30T00:38:19.238Z,999.77
2017-11-30T00:38:59.755Z,999.73
2017-11-30T00:39:40.222Z,999.77
2017-11-30T00:40:20.737Z,999.77
2017-11-30T00:41:01.219Z,999.78
2017-11-30T00:41:41.731Z,999.76
2017-11-30T00:42:22.267Z,999.77
2017-11-30T00:43:02.764Z,999.76
2017-11-30T00:43:43.258Z,999.78
2017-11-30T00:44:23.746Z,999.79
2017-11-30T00:45:04.252Z,999.76
2017-11-30T00:45:44.769Z,999.74
2017-11-30T00:46:25.266Z,999.73
2017-11-30T00:47:05.785Z,999.76
2017-11-30T00:47:46.311Z,999.75
2017-11-30T00:48:26.840Z,999.71
2017-11-30T00:49:07.351Z,999.72
2017-11-30T00:49:47.849Z,999.72
2017-11-30T00:50:28.389Z,999.74
2017-11-30T00:51:08.891Z,999.68
2017-11-30T00:51:49.409Z,999.68
2017-11-30T00:52:29.894Z,999.68
2017-11-30T00:53:10.425Z,999.66
2017-11-30T00:53:50.929Z,999.67
2017-11-30T00:54:31.441Z,999.66
2017-11-30T00:55:11.967Z,999.65
2017-11-30T00:55:52.517Z,999.62
2017-11-30T00:56:33.024Z,999.64
2017-11-30T00:57:13.550Z,999.66
2017-11-30T00:57:54.065Z,999.63
2017-11-30T00:58:34.565Z,999.66
2017-11-30T00:59:15.063Z,999.65
2017-11-30T00:59:55.575Z,999.67
2017-11-30T01:00:36.089Z,999.65
2017-11-30T01:01:16.628Z,999.63
2017-11-30T01:01:57.134Z,999.65
2017-11-30T01:02:37.651Z,999.61
2017-11-30T01:03:18.168Z,999.64
2017-11-30T01:03:58.660Z,999.66
2017-11-30T01:04:39.184Z,999.62
2017-11-30T01:05:19.706Z,999.62
2017-11-30T01:06:00.227Z,999.65
2017-11-30T01:06:40.741Z,999.61
2017-11-30T01:07:21.271Z,999.64
2017-11-30T01:08:01.773Z,999.67
2017-11-30T01:10:17.294Z,999.64
2017-11-30T01:10:57.804Z,999.63
2017-11-30T01:11:38.325Z,999.64
2017-11-30T01:12:18.847Z,999.66
2017-11-30T01:12:59.360Z,999.63
2017-11-30T01:13:39.902Z,999.65
2017-11-30T01:14:20.403Z,999.65
2017-11-30T01:15:00.952Z,999.65
2017-11-30T01:15:41.471Z,999.67
2017-11-30T01:16:21.970Z,999.65
2017-11-30T01:17:02.460Z,999.68
2017-11-30T01:17:42.981Z,999.62
2017-11-30T01:18:23.493Z,999.66
2017-11-30T01:19:03.996Z,999.67
2017-11-30T01:19:44.520Z,999.69
2017-11-30T01:20:25.010Z,999.61
2017-11-30T01:21:05.522Z,999.63
2017-11-30T01:21:46.032Z,999.62
2017-11-30T01:22:26.521Z,999.64
2017-11-30T01:23:07.022Z,999.61
2017-11-30T01:23:47.552Z,999.62
2017-11-30T01:24:28.014Z,999.58
2017-11-30T01:25:08.523Z,999.6
2017-11-30T01:25:49.047Z,999.6
2017-11-30T01:26:31.114Z,999.56
2017-11-30T01:27:11.612Z,999.6
2017-11-30T01:27:52.132Z,999.59
2017-11-30T01:28:32.636Z,999.63
2017-11-30T01:29:13.147Z,999.6
2017-11-30T01:29:53.686Z,999.63
2017-11-30T01:30:34.194Z,999.65
2017-11-30T01:31:14.710Z,999.63
2017-11-30T01:31:55.245Z,999.6
2017-11-30T01:32:35.750Z,999.65
2017-11-30T01:33:16.274Z,999.71
2017-11-30T01:33:56.808Z,999.67
2017-11-30T01:34:37.331Z,999.66
2017-11-30T01:35:17.847Z,999.7
2017-11-30T01:35:58.368Z,999.64
2017-11-30T01:36:38.891Z,999.64
2017-11-30T01:37:19.395Z,999.64
2017-11-30T01:37:59.910Z,999.62
2017-11-30T01:38:40.479Z,999.64
2017-11-30T01:39:20.993Z,999.63
2017-11-30T01:40:01.484Z,999.65
2017-11-30T01:40:42.006Z,999.65
2017-11-30T01:41:22.529Z,999.65
2017-11-30T01:42:03.036Z,999.65
2017-11-30T01:42:43.550Z,999.67
2017-11-30T01:43:24.089Z,999.63
2017-11-30T01:44:04.596Z,999.57
2017-11-30T01:44:45.129Z,999.63
2017-11-30T01:45:25.639Z,999.63
2017-11-30T01:46:06.146Z,999.66
2017-11-30T01:46:46.653Z,999.63
2017-11-30T01:47:27.129Z,999.62
2017-11-30T01:48:07.653Z,999.62
2017-11-30T01:48:48.186Z,999.6
2017-11-30T01:49:28.684Z,999.6
2017-11-30T01:50:09.212Z,999.61
2017-11-30T01:50:49.703Z,999.6
2017-11-30T01:51:30.213Z,999.58
2017-11-30T01:52:10.745Z,999.59
2017-11-30T01:52:51.244Z,999.65
2017-11-30T01:53:31.761Z,999.6
2017-11-30T01:54:12.265Z,999.65
2017-11-30T01:54:52.780Z,999.61
2017-11-30T01:55:33.305Z,999.66
2017-11-30T01:56:13.789Z,999.64
2017-11-30T01:56:54.313Z,999.64
2017-11-30T01:57:34.833Z,999.65
2017-11-30T01:58:15.328Z,999.63
2017-11-30T01:58:55.833Z,999.67
2017-11-30T01:59:36.350Z,999.64
2017-11-30T02:00:16.883Z,999.6
2017-11-30T02:00:57.389Z,999.65
2017-11-30T02:01:37.914Z,999.59
2017-11-30T02:02:18.437Z,999.59
2017-11-30T02:02:58.934Z,999.56
2017-11-30T02:03:39.452Z,999.57
2017-11-30T02:04:19.960Z,999.58
2017-11-30T02:05:00.486Z,999.59
2017-11-30T02:05:41.015Z,999.62
2017-11-30T02:06:21.525Z,999.56
2017-11-30T02:07:02.027Z,999.58
2017-11-30T02:07:42.534Z,999.6
2017-11-30T02:08:23.043Z,999.59
2017-11-30T02:09:03.570Z,999.58
2017-11-30T02:09:44.059Z,999.57
2017-11-30T02:10:24.586Z,999.56
2017-11-30T02:11:05.118Z,999.58
2017-11-30T02:11:45.619Z,999.55
2017-11-30T02:12:26.146Z,999.53
2017-11-30T02:13:06.665Z,999.55
2017-11-30T02:13:47.165Z,999.55
2017-11-30T02:14:27.690Z,999.53
2017-11-30T02:15:08.212Z,999.54
2017-11-30T02:15:48.718Z,999.57
2017-11-30T02:16:29.229Z,999.53
2017-11-30T02:17:09.737Z,999.5
2017-11-30T02:17:50.245Z,999.51
2017-11-30T02:18:30.768Z,999.54
2017-11-30T02:19:11.270Z,999.53
2017-11-30T02:19:51.788Z,999.53
2017-11-30T02:20:32.291Z,999.56
2017-11-30T02:21:12.805Z,999.54
2017-11-30T02:21:53.303Z,999.51
2017-11-30T02:22:33.816Z,999.54
2017-11-30T02:23:14.337Z,999.54
2017-11-30T02:23:54.850Z,999.52
2017-11-30T02:24:35.369Z,999.52
2017-11-30T02:25:15.874Z,999.51
2017-11-30T02:25:56.380Z,999.55
2017-11-30T02:26:36.906Z,999.5
2017-11-30T02:27:17.418Z,999.51
2017-11-30T02:27:57.929Z,999.51
2017-11-30T02:28:38.487Z,999.51
2017-11-30T02:29:18.986Z,999.53
2017-11-30T02:29:59.510Z,999.5
2017-11-30T02:30:40.019Z,999.51
2017-11-30T02:31:20.564Z,999.48
2017-11-30T02:32:01.081Z,999.48
2017-11-30T02:32:41.580Z,999.52
2017-11-30T02:33:22.085Z,999.51
2017-11-30T02:34:02.583Z,999.52
2017-11-30T02:34:43.106Z,999.51
2017-11-30T02:35:23.630Z,999.5
2017-11-30T02:36:04.142Z,999.48
2017-11-30T02:36:44.663Z,999.47
2017-11-30T02:37:25.184Z,999.5
2017-11-30T02:38:05.701Z,999.5
2017-11-30T02:38:46.210Z,999.51
2017-11-30T02:39:26.742Z,999.46
2017-11-30T02:40:07.239Z,999.48
2017-11-30T02:40:47.745Z,999.5
2017-11-30T02:41:28.285Z,999.5
2017-11-30T02:42:08.901Z,999.5
2017-11-30T02:42:49.410Z,999.51
2017-11-30T02:43:29.930Z,999.44
2017-11-30T02:44:10.434Z,999.47
2017-11-30T02:44:50.958Z,999.48
2017-11-30T02:45:31.491Z,999.47
2017-11-30T02:46:11.994Z,999.44
2017-11-30T02:46:52.512Z,999.47
2017-11-30T02:47:33.051Z,999.5
2017-11-30T02:48:13.581Z,999.46
2017-11-30T02:48:54.064Z,999.46
2017-11-30T02:49:34.575Z,999.46
2017-11-30T02:50:15.085Z,999.46
2017-11-30T02:50:55.605Z,999.44
2017-11-30T02:51:36.102Z,999.44
2017-11-30T02:52:16.598Z,999.41
2017-11-30T02:52:57.128Z,999.41
2017-11-30T02:53:37.617Z,999.39
2017-11-30T02:54:18.130Z,999.37
2017-11-30T02:54:58.632Z,999.37
2017-11-30T02:55:39.138Z,999.35
2017-11-30T02:56:19.631Z,999.35
2017-11-30T02:57:00.149Z,999.38
2017-11-30T02:57:40.668Z,999.36
2017-11-30T02:58:21.171Z,999.36
2017-11-30T02:59:01.687Z,999.35
2017-11-30T02:59:42.205Z,999.4
2017-11-30T03:00:22.710Z,999.35
2017-11-30T03:01:03.221Z,999.33
2017-11-30T03:01:43.736Z,999.36
2017-11-30T03:02:24.243Z,999.36
2017-11-30T03:03:04.740Z,999.35
2017-11-30T03:03:45.256Z,999.38
2017-11-30T03:04:25.791Z,999.38
2017-11-30T03:05:06.364Z,999.37
2017-11-30T03:05:46.834Z,999.38
2017-11-30T03:06:27.327Z,999.44
2017-11-30T03:07:07.837Z,999.37
2017-11-30T03:07:48.361Z,999.41
2017-11-30T03:08:28.881Z,999.38
2017-11-30T03:09:09.376Z,999.36
2017-11-30T03:09:49.881Z,999.37
2017-11-30T03:10:30.397Z,999.37
2017-11-30T03:11:10.883Z,999.37
2017-11-30T03:11:51.364Z,999.33
2017-11-30T03:12:31.897Z,999.36
2017-11-30T03:13:12.429Z,999.33
2017-11-30T03:13:52.936Z,999.36
2017-11-30T03:14:33.450Z,999.32
2017-11-30T03:15:13.960Z,999.35
2017-11-30T03:15:54.459Z,999.33
2017-11-30T03:16:34.967Z,999.33
2017-11-30T03:17:15.482Z,999.35
2017-11-30T03:17:56.007Z,999.32
2017-11-30T03:18:36.494Z,999.31
2017-11-30T03:19:17.004Z,999.32
2017-11-30T03:19:57.535Z,999.32
2017-11-30T03:20:38.059Z,999.32
2017-11-30T03:21:18.536Z,999.28
2017-11-30T03:21:59.041Z,999.29
2017-11-30T03:22:39.567Z,999.3
2017-11-30T03:23:20.092Z,999.28
2017-11-30T03:24:00.583Z,999.28
2017-11-30T03:24:41.110Z,999.27
2017-11-30T03:25:21.635Z,999.3
2017-11-30T03:26:02.135Z,999.29
2017-11-30T03:26:42.631Z,999.29
2017-11-30T03:27:23.142Z,999.28
2017-11-30T03:28:03.670Z,999.28
2017-11-30T03:28:44.189Z,999.31
2017-11-30T03:29:24.690Z,999.31
2017-11-30T03:30:05.182Z,999.27
2017-11-30T03:30:45.709Z,999.3
2017-11-30T03:31:26.210Z,999.3
2017-11-30T03:32:06.721Z,999.24
2017-11-30T03:32:47.228Z,999.26
2017-11-30T03:33:27.743Z,999.24
2017-11-30T03:34:08.286Z,999.24
2017-11-30T03:34:48.793Z,999.24
2017-11-30T03:35:36.233Z,999.21
2017-11-30T03:36:16.755Z,999.18
2017-11-30T03:36:57.258Z,999.2
2017-11-30T03:37:37.773Z,999.18
2017-11-30T03:38:18.281Z,999.18
2017-11-30T03:38:58.787Z,999.17
2017-11-30T03:39:39.317Z,999.22
2017-11-30T03:40:19.834Z,999.19
2017-11-30T03:41:00.345Z,999.21
2017-11-30T03:41:40.864Z,999.22
2017-11-30T03:42:21.375Z,999.18
2017-11-30T03:43:01.900Z,999.2
2017-11-30T03:43:42.423Z,999.18
2017-11-30T03:44:22.925Z,999.2
2017-11-30T03:45:03.436Z,999.2
2017-11-30T03:45:43.947Z,999.18
2017-11-30T03:46:24.448Z,999.24
2017-11-30T03:47:04.966Z,999.21
2017-11-30T03:47:45.480Z,999.21
2017-11-30T03:48:25.984Z,999.2
2017-11-30T03:49:06.496Z,999.18
2017-11-30T03:49:47.021Z,999.17
2017-11-30T03:50:27.545Z,999.16
2017-11-30T03:51:08.036Z,999.18
2017-11-30T03:51:48.546Z,999.19
2017-11-30T03:52:29.061Z,999.2
2017-11-30T03:53:09.563Z,999.19
2017-11-30T03:53:50.079Z,999.16
2017-11-30T03:54:30.677Z,999.19
2017-11-30T03:55:11.185Z,999.17
2017-11-30T03:55:51.696Z,999.18
2017-11-30T03:56:32.218Z,999.18
2017-11-30T03:57:12.745Z,999.13
2017-11-30T03:57:53.247Z,999.16
2017-11-30T03:58:33.771Z,999.11
2017-11-30T03:59:14.259Z,999.12
2017-11-30T03:59:54.774Z,999.11
2017-11-30T04:00:35.279Z,999.14
2017-11-30T04:01:15.797Z,999.1
2017-11-30T04:01:56.315Z,999.11
2017-11-30T04:02:36.811Z,999.14
2017-11-30T04:03:17.344Z,999.09
2017-11-30T04:03:57.870Z,999.1
2017-11-30T04:04:38.396Z,999.09
2017-11-30T04:05:18.904Z,999.09
2017-11-30T04:05:59.428Z,999.07
2017-11-30T04:06:39.953Z,999.1
2017-11-30T04:07:20.487Z,999.09
2017-11-30T04:08:00.994Z,999.08
2017-11-30T04:08:41.531Z,999.09
2017-11-30T04:09:22.049Z,999.08
2017-11-30T04:10:02.549Z,999.05
2017-11-30T04:10:43.089Z,999.04
2017-11-30T04:11:23.598Z,999.06
2017-11-30T04:12:04.129Z,999.03
2017-11-30T04:12:44.656Z,999.08
2017-11-30T04:13:25.174Z,999.03
2017-11-30T04:14:05.658Z,999.03
2017-11-30T04:14:46.175Z,999.01
2017-11-30T04:15:26.695Z,999.01
2017-11-30T04:16:07.206Z,998.96
2017-11-30T04:16:47.758Z,998.97
2017-11-30T04:17:28.289Z,999.01
2017-11-30T04:18:08.807Z,999.02
2017-11-30T04:18:49.331Z,999
2017-11-30T04:19:29.858Z,998.99
2017-11-30T04:20:10.375Z,999.02
2017-11-30T04:20:50.873Z,999.03
2017-11-30T04:21:31.377Z,999.01
2017-11-30T04:22:11.916Z,999.07
2017-11-30T04:22:52.421Z,999.06
2017-11-30T04:23:32.936Z,999.05
2017-11-30T04:24:13.460Z,999.02
2017-11-30T04:24:53.979Z,999.05
2017-11-30T04:25:34.487Z,999.01
2017-11-30T04:26:15.006Z,999.01
2017-11-30T04:26:55.508Z,998.98
2017-11-30T04:27:36.037Z,998.96
2017-11-30T04:28:16.550Z,998.93
2017-11-30T04:28:57.048Z,998.98
2017-11-30T04:29:37.592Z,998.93
2017-11-30T04:30:18.154Z,998.9
2017-11-30T04:30:58.660Z,998.94
2017-11-30T04:31:39.159Z,998.91
2017-11-30T04:32:19.679Z,998.93
2017-11-30T04:33:00.212Z,998.91
2017-11-30T04:33:40.723Z,998.91
2017-11-30T04:34:21.243Z,998.92
2017-11-30T04:35:01.748Z,998.93
2017-11-30T04:35:42.270Z,998.9
2017-11-30T04:36:22.763Z,998.9
2017-11-30T04:37:03.281Z,998.91
2017-11-30T04:37:43.813Z,998.91
2017-11-30T04:38:24.281Z,998.92
2017-11-30T04:39:04.765Z,998.91
2017-11-30T04:39:45.267Z,998.88
2017-11-30T04:40:25.765Z,998.9
2017-11-30T04:41:06.265Z,998.88
2017-11-30T04:41:46.766Z,998.94
2017-11-30T04:42:27.256Z,998.9
2017-11-30T04:43:07.771Z,998.89
2017-11-30T04:43:48.264Z,998.88
2017-11-30T04:44:28.831Z,998.9
2017-11-30T04:45:09.315Z,998.89
2017-11-30T04:45:49.749Z,998.88
2017-11-30T04:46:30.239Z,998.89
2017-11-30T04:47:10.771Z,998.9
2017-11-30T04:47:51.217Z,998.94
2017-11-30T04:48:31.736Z,998.91
2017-11-30T04:49:12.268Z,998.96
2017-11-30T04:49:52.737Z,998.87
2017-11-30T04:50:33.276Z,998.96
2017-11-30T04:51:13.777Z,998.96
2017-11-30T04:51:54.256Z,998.93
2017-11-30T04:52:34.757Z,998.91
2017-11-30T04:53:15.239Z,998.89
2017-11-30T04:53:55.789Z,998.87
2017-11-30T04:54:36.336Z,998.87
2017-11-30T04:55:16.844Z,998.84
2017-11-30T04:55:57.339Z,998.85
2017-11-30T04:56:37.846Z,998.87
2017-11-30T04:57:18.322Z,998.85
2017-11-30T04:57:58.816Z,998.87
2017-11-30T04:58:39.316Z,998.87
2017-11-30T04:59:19.801Z,998.87
2017-11-30T05:00:00.310Z,998.87
2017-11-30T05:00:40.868Z,998.85
2017-11-30T05:01:21.386Z,998.89
2017-11-30T05:02:02.063Z,998.86
2017-11-30T05:02:42.579Z,998.9
2017-11-30T05:03:23.122Z,998.85
2017-11-30T05:04:03.600Z,998.85
2017-11-30T05:04:44.105Z,998.89
2017-11-30T05:05:24.640Z,998.81
2017-11-30T05:06:05.123Z,998.83
2017-11-30T05:06:45.602Z,998.83
2017-11-30T05:07:26.117Z,998.86
2017-11-30T05:08:06.756Z,998.84
2017-11-30T05:08:47.279Z,998.83
2017-11-30T05:09:27.823Z,998.85
2017-11-30T05:10:08.375Z,998.82
2017-11-30T05:10:48.912Z,998.84
2017-11-30T05:11:29.416Z,998.84
2017-11-30T05:12:09.902Z,998.8
2017-11-30T05:12:50.402Z,998.8
2017-11-30T05:13:30.912Z,998.83
2017-11-30T05:14:11.766Z,998.81
2017-11-30T05:14:56.577Z,998.79
2017-11-30T05:15:39.078Z,998.74
2017-11-30T05:16:19.570Z,998.8
2017-11-30T05:17:00.100Z,998.75
2017-11-30T05:17:40.608Z,998.76
2017-11-30T05:18:21.124Z,998.79
2017-11-30T05:19:01.695Z,998.75
2017-11-30T05:19:42.489Z,998.73
2017-11-30T05:20:23.181Z,998.74
2017-11-30T05:21:03.762Z,998.76
2017-11-30T05:21:45.382Z,998.73
2017-11-30T05:25:35.192Z,998.72
2017-11-30T05:26:15.756Z,998.74
2017-11-30T05:26:58.927Z,998.73
2017-11-30T05:27:40.372Z,998.81
2017-11-30T05:28:21.061Z,998.76
2017-11-30T05:30:37.006Z,998.81
2017-11-30T05:32:38.709Z,998.78
2017-11-30T05:33:18.933Z,998.77
2017-11-30T05:33:59.376Z,998.78
2017-11-30T05:34:39.923Z,998.73
2017-11-30T05:35:20.454Z,998.74
2017-11-30T05:36:00.983Z,998.76
2017-11-30T05:36:41.546Z,998.76
2017-11-30T05:37:22.057Z,998.75
2017-11-30T05:38:02.592Z,998.72
2017-11-30T05:38:43.111Z,998.71
2017-11-30T05:39:23.653Z,998.74
2017-11-30T05:40:04.198Z,998.69
2017-11-30T05:40:46.339Z,998.71
2017-11-30T05:41:27.920Z,998.76
2017-11-30T05:42:09.033Z,998.71
2017-11-30T05:42:50.553Z,998.75
2017-11-30T05:43:31.003Z,998.71
2017-11-30T05:44:11.588Z,998.71
2017-11-30T05:44:52.129Z,998.76
2017-11-30T05:45:32.682Z,998.76
2017-11-30T05:46:13.398Z,998.79
2017-11-30T05:46:53.946Z,998.78
2017-11-30T05:47:37.158Z,998.77
2017-11-30T05:48:17.708Z,998.76
2017-11-30T05:48:58.221Z,998.81
2017-11-30T05:49:38.824Z,998.78
2017-11-30T05:50:19.481Z,998.75
2017-11-30T05:50:59.986Z,998.76
2017-11-30T05:51:40.573Z,998.8
2017-11-30T05:52:21.209Z,998.79
2017-11-30T05:53:01.860Z,998.84
2017-11-30T05:53:42.158Z,998.85
2017-11-30T05:54:22.672Z,998.86
2017-11-30T05:55:03.171Z,998.83
2017-11-30T05:55:43.832Z,998.84
2017-11-30T05:56:24.666Z,998.8
2017-11-30T05:57:05.210Z,998.82
2017-11-30T05:57:45.758Z,998.8
2017-11-30T05:58:26.385Z,998.81
2017-11-30T05:59:06.897Z,998.79
2017-11-30T05:59:48.269Z,998.79
2017-11-30T06:00:28.820Z,998.8
2017-11-30T06:01:09.268Z,998.79
2017-11-30T06:01:49.829Z,998.78
2017-11-30T06:02:30.350Z,998.79
2017-11-30T06:03:10.810Z,998.74
2017-11-30T06:03:51.322Z,998.78
2017-11-30T06:04:31.909Z,998.8
2017-11-30T06:05:12.426Z,998.77
2017-11-30T06:05:57.142Z,998.76
2017-11-30T06:06:37.795Z,998.77
2017-11-30T06:07:18.876Z,998.78
2017-11-30T06:07:59.359Z,998.8
2017-11-30T06:08:39.921Z,998.79
2017-11-30T06:09:20.464Z,998.78
2017-11-30T06:10:01.063Z,998.8
2017-11-30T06:10:41.472Z,998.82
2017-11-30T06:11:21.973Z,998.8
2017-11-30T06:12:02.499Z,998.81
2017-11-30T06:12:42.999Z,998.79
2017-11-30T06:13:23.538Z,998.82
2017-11-30T06:14:04.001Z,998.84
2017-11-30T06:14:44.530Z,998.78
2017-11-30T06:15:25.061Z,998.75
2017-11-30T06:16:05.592Z,998.78
2017-11-30T06:16:46.100Z,998.78
2017-11-30T06:17:26.914Z,998.76
2017-11-30T06:18:07.404Z,998.79
2017-11-30T06:18:47.898Z,998.79
2017-11-30T06:19:28.395Z,998.75
2017-11-30T06:20:09.015Z,998.8
2017-11-30T06:20:49.374Z,998.75
2017-11-30T06:21:29.839Z,998.77
2017-11-30T06:22:10.345Z,998.76
2017-11-30T06:22:50.847Z,998.78
2017-11-30T06:23:31.344Z,998.8
2017-11-30T06:24:11.866Z,998.81
2017-11-30T06:24:52.382Z,998.82
2017-11-30T06:25:32.913Z,998.81
2017-11-30T06:26:13.381Z,998.82
2017-11-30T06:26:53.922Z,998.8
2017-11-30T06:27:34.399Z,998.81
2017-11-30T06:28:14.908Z,998.8
2017-11-30T06:28:55.425Z,998.82
2017-11-30T06:29:35.907Z,998.81
2017-11-30T06:30:16.402Z,998.8
2017-11-30T06:30:56.946Z,998.83
2017-11-30T06:31:37.406Z,998.82
2017-11-30T06:32:17.930Z,998.82
2017-11-30T06:32:58.393Z,998.84
2017-11-30T06:33:38.921Z,998.78
2017-11-30T06:34:19.370Z,998.76
2017-11-30T06:34:59.870Z,998.76
2017-11-30T06:35:40.351Z,998.75
2017-11-30T06:36:20.837Z,998.76
2017-11-30T06:37:01.428Z,998.69
2017-11-30T06:37:41.920Z,998.69
2017-11-30T06:38:22.424Z,998.74
2017-11-30T06:39:02.957Z,998.72
2017-11-30T06:39:43.415Z,998.68
2017-11-30T06:40:23.991Z,998.72
2017-11-30T06:41:04.460Z,998.69
2017-11-30T06:41:44.995Z,998.7
2017-11-30T06:42:25.475Z,998.69
2017-11-30T06:43:05.954Z,998.67
2017-11-30T06:43:46.486Z,998.62
2017-11-30T06:44:27.003Z,998.64
2017-11-30T06:45:07.564Z,998.64
2017-11-30T06:45:49.159Z,998.64
2017-11-30T06:46:29.655Z,998.61
2017-11-30T06:47:10.154Z,998.62
2017-11-30T06:47:50.636Z,998.64
2017-11-30T06:48:31.119Z,998.67
2017-11-30T06:49:11.712Z,998.62
2017-11-30T06:49:52.206Z,998.61
2017-11-30T06:50:32.709Z,998.64
2017-11-30T06:51:13.246Z,998.61
2017-11-30T06:51:53.742Z,998.63
2017-11-30T06:52:34.252Z,998.65
2017-11-30T06:53:14.775Z,998.67
2017-11-30T06:53:55.258Z,998.67
2017-11-30T06:56:12.272Z,998.63
2017-11-30T06:56:52.539Z,998.66
2017-11-30T07:06:46.687Z,998.64
2017-11-30T07:07:52.269Z,998.63
2017-11-30T07:08:42.940Z,998.68
2017-11-30T07:09:32.192Z,998.65
2017-11-30T07:10:20.949Z,998.67
2017-11-30T07:11:09.583Z,998.67
2017-11-30T07:11:57.256Z,998.7
2017-11-30T07:12:40.203Z,998.7
2017-11-30T07:13:25.909Z,998.73
2017-11-30T07:14:09.087Z,998.76
2017-11-30T07:14:53.234Z,998.74
2017-11-30T07:15:37.717Z,998.75
2017-11-30T07:16:25.865Z,998.76
2017-11-30T07:24:23.554Z,998.79
2017-11-30T07:25:03.650Z,998.77
2017-11-30T07:25:44.155Z,998.78
2017-11-30T07:26:24.687Z,998.8
2017-11-30T07:27:05.264Z,998.75
2017-11-30T07:27:45.782Z,998.79
2017-11-30T07:28:26.493Z,998.78
2017-11-30T07:29:06.938Z,998.78
2017-11-30T07:29:47.499Z,998.81
2017-11-30T07:30:28.117Z,998.82
2017-11-30T07:31:08.678Z,998.82
2017-11-30T07:31:49.185Z,998.84
2017-11-30T07:32:29.733Z,998.82
2017-11-30T07:33:10.327Z,998.78
2017-11-30T07:33:51.752Z,998.82
2017-11-30T07:34:32.210Z,998.81
2017-11-30T07:35:12.753Z,998.83
2017-11-30T07:35:53.241Z,998.81
2017-11-30T07:36:33.896Z,998.82
2017-11-30T07:37:14.383Z,998.85
2017-11-30T07:37:54.984Z,998.82
2017-11-30T07:38:35.639Z,998.81
2017-11-30T07:39:16.145Z,998.84
2017-11-30T07:39:56.669Z,998.84
2017-11-30T07:40:37.256Z,998.87
2017-11-30T07:41:17.761Z,998.81
2017-11-30T07:41:58.295Z,998.87
2017-11-30T07:42:38.814Z,998.8
2017-11-30T07:43:19.349Z,998.82
2017-11-30T07:43:59.865Z,998.82
2017-11-30T07:44:40.375Z,998.82
2017-11-30T07:45:20.925Z,998.81
2017-11-30T07:46:01.418Z,998.86
2017-11-30T07:46:41.917Z,998.83
2017-11-30T07:47:22.443Z,998.82
2017-11-30T07:48:02.925Z,998.82
2017-11-30T07:48:43.421Z,998.84
2017-11-30T07:49:23.928Z,998.82
2017-11-30T07:50:04.387Z,998.84
2017-11-30T07:50:44.904Z,998.82
2017-11-30T07:51:25.416Z,998.83
2017-11-30T07:52:05.921Z,998.81
2017-11-30T07:52:46.413Z,998.81
2017-11-30T07:53:26.978Z,998.82
2017-11-30T07:54:07.470Z,998.82
2017-11-30T07:54:47.954Z,998.8
2017-11-30T07:55:28.447Z,998.79
2017-11-30T07:56:08.942Z,998.8
2017-11-30T07:56:49.437Z,998.81
2017-11-30T07:57:29.924Z,998.83
2017-11-30T07:58:10.403Z,998.81
2017-11-30T07:58:50.905Z,998.89
2017-11-30T07:59:31.389Z,998.88
2017-11-30T08:00:11.864Z,998.85
2017-11-30T08:00:52.374Z,998.87
2017-11-30T08:01:32.824Z,998.88
2017-11-30T08:02:13.346Z,998.87
2017-11-30T08:02:53.804Z,998.85
2017-11-30T08:03:34.291Z,998.86
2017-11-30T08:04:14.864Z,998.87
2017-11-30T08:04:55.310Z,998.85
2017-11-30T08:05:35.814Z,998.84
2017-11-30T08:06:16.351Z,998.84
2017-11-30T08:06:56.798Z,998.83
2017-11-30T08:07:37.293Z,998.86
2017-11-30T08:08:17.827Z,998.84
2017-11-30T08:08:58.505Z,998.85
2017-11-30T08:09:38.979Z,998.85
2017-11-30T08:10:19.469Z,998.83
2017-11-30T08:10:59.967Z,998.83
2017-11-30T08:11:40.476Z,998.85
2017-11-30T08:12:20.979Z,998.88
2017-11-30T08:13:01.448Z,998.9
2017-11-30T08:13:41.918Z,998.88
2017-11-30T08:14:22.429Z,998.84
2017-11-30T08:15:02.916Z,998.84
2017-11-30T08:15:43.440Z,998.83
2017-11-30T08:16:23.949Z,998.83
2017-11-30T08:17:04.455Z,998.85
2017-11-30T08:17:44.955Z,998.83
2017-11-30T08:18:25.464Z,998.82
2017-11-30T08:19:05.972Z,998.81
2017-11-30T08:19:46.521Z,998.83
2017-11-30T08:20:26.969Z,998.82
2017-11-30T08:21:07.533Z,998.83
2017-11-30T08:21:48.012Z,998.86
2017-11-30T08:22:28.478Z,998.86
2017-11-30T08:23:10.618Z,998.85
2017-11-30T08:23:51.107Z,998.82
2017-11-30T08:24:31.646Z,998.85
2017-11-30T08:25:12.231Z,998.81
2017-11-30T08:25:52.707Z,998.84
2017-11-30T08:26:34.834Z,998.84
2017-11-30T08:27:15.379Z,998.83
2017-11-30T08:27:55.812Z,998.78
2017-11-30T08:28:36.309Z,998.82
2017-11-30T08:29:16.831Z,998.83
2017-11-30T08:29:57.341Z,998.82
2017-11-30T08:30:37.801Z,998.82
2017-11-30T08:31:18.289Z,998.84
2017-11-30T08:31:58.803Z,998.84
2017-11-30T08:32:39.468Z,998.8
2017-11-30T08:33:20.002Z,998.8
2017-11-30T08:34:00.472Z,998.78
2017-11-30T08:34:40.972Z,998.82
2017-11-30T08:35:21.490Z,998.81
2017-11-30T08:36:02.012Z,998.81
2017-11-30T08:36:42.469Z,998.76
2017-11-30T08:37:22.965Z,998.78
2017-11-30T08:38:03.449Z,998.8
2017-11-30T08:38:43.936Z,998.79
2017-11-30T08:39:24.460Z,998.82
2017-11-30T08:40:04.978Z,998.82
2017-11-30T08:40:45.502Z,998.82
2017-11-30T08:41:26.022Z,998.8
2017-11-30T08:42:06.540Z,998.81
2017-11-30T08:42:47.045Z,998.8
2017-11-30T08:43:27.522Z,998.82
2017-11-30T08:44:08.023Z,998.83
2017-11-30T08:44:48.515Z,998.81
2017-11-30T08:45:29.060Z,998.8
2017-11-30T08:46:09.504Z,998.78
2017-11-30T08:46:50.032Z,998.81
2017-11-30T08:47:30.473Z,998.82
2017-11-30T08:48:11.019Z,998.81
2017-11-30T08:48:51.493Z,998.79
2017-11-30T08:49:32.002Z,998.81
2017-11-30T08:50:12.482Z,998.8
2017-11-30T08:50:52.968Z,998.79
2017-11-30T08:51:33.454Z,998.78
2017-11-30T08:52:13.921Z,998.77
2017-11-30T08:52:54.408Z,998.77
2017-11-30T08:53:34.945Z,998.77
2017-11-30T08:54:15.371Z,998.76
2017-11-30T08:54:55.934Z,998.77
2017-11-30T08:55:36.410Z,998.77